createdAt,value
2019-01-24T00:00:32.119Z,-1.38
2019-01-24T00:01:32.089Z,-1.41
2019-01-24T00:02:32.090Z,-1.41
2019-01-24T00:03:32.094Z,-1.41
2019-01-24T00:04:31.789Z,-1.4
2019-01-24T00:05:32.028Z,-1.5
2019-01-24T00:06:31.778Z,-1.41
2019-01-24T00:07:32.000Z,-1.37
2019-01-24T00:08:31.729Z,-1.38
2019-01-24T00:09:31.467Z,-1.5
2019-01-24T00:10:31.954Z,-1.46
2019-01-24T00:11:31.944Z,-1.58
2019-01-24T00:12:31.709Z,-1.59
2019-01-24T00:13:31.921Z,-1.59
2019-01-24T00:14:31.738Z,-1.54
2019-01-24T00:15:31.392Z,-1.61
2019-01-24T00:16:31.638Z,-1.53
2019-01-24T00:17:31.633Z,-1.62
2019-01-24T00:18:31.715Z,-1.65
2019-01-24T00:19:31.881Z,-1.61
2019-01-24T00:20:31.563Z,-1.54
2019-01-24T00:21:31.322Z,-1.61
2019-01-24T00:22:31.776Z,-1.59
2019-01-24T00:23:31.526Z,-1.68
2019-01-24T00:24:31.756Z,-1.72
2019-01-24T00:25:31.509Z,-1.66
2019-01-24T00:26:31.239Z,-1.64
2019-01-24T00:27:31.729Z,-1.61
2019-01-24T00:28:31.456Z,-1.72
2019-01-24T00:29:31.679Z,-1.68
2019-01-24T00:30:31.420Z,-1.53
2019-01-24T00:31:31.405Z,-1.56
2019-01-24T00:32:31.637Z,-1.62
2019-01-24T00:33:31.632Z,-1.54
2019-01-24T00:34:31.371Z,-1.61
2019-01-24T00:35:31.358Z,-1.62
2019-01-24T00:36:31.344Z,-1.61
2019-01-24T00:37:31.574Z,-1.62
2019-01-24T00:38:31.344Z,-1.71
2019-01-24T00:39:31.313Z,-1.59
2019-01-24T00:40:31.577Z,-1.64
2019-01-24T00:41:31.521Z,-1.62
2019-01-24T00:42:31.272Z,-1.71
2019-01-24T00:43:31.267Z,-1.62
2019-01-24T00:44:31.486Z,-1.64
2019-01-24T00:45:31.247Z,-1.68
2019-01-24T00:46:31.456Z,-1.64
2019-01-24T00:47:31.228Z,-1.65
2019-01-24T00:48:31.451Z,-1.72
2019-01-24T00:49:31.425Z,-1.64
2019-01-24T00:50:31.396Z,-1.72
2019-01-24T00:51:31.163Z,-1.61
2019-01-24T00:52:31.124Z,-1.72
2019-01-24T00:53:31.347Z,-1.66
2019-01-24T00:54:31.108Z,-1.64
2019-01-24T00:55:31.357Z,-1.65
2019-01-24T00:56:30.809Z,-1.64
2019-01-24T00:57:31.064Z,-1.68
2019-01-24T00:58:31.284Z,-1.66
2019-01-24T00:59:30.785Z,-1.66
2019-01-24T01:00:31.014Z,-1.68
2019-01-24T01:01:31.245Z,-1.65
2019-01-24T01:02:31.256Z,-1.64
2019-01-24T01:03:31.226Z,-1.65
2019-01-24T01:04:34.509Z,-1.64
2019-01-24T01:05:31.210Z,-1.64
2019-01-24T01:06:30.920Z,-1.64
2019-01-24T01:07:31.182Z,-1.64
2019-01-24T01:08:31.153Z,-1.72
2019-01-24T01:09:30.618Z,-1.68
2019-01-24T01:10:30.866Z,-1.72
2019-01-24T01:11:30.852Z,-1.61
2019-01-24T01:12:31.077Z,-1.64
2019-01-24T01:13:31.080Z,-1.56
2019-01-24T01:14:30.836Z,-1.64
2019-01-24T01:15:30.551Z,-1.61
2019-01-24T01:16:30.519Z,-1.64
2019-01-24T01:17:31.023Z,-1.61
2019-01-24T01:18:30.984Z,-1.62
2019-01-24T01:19:30.956Z,-1.66
2019-01-24T01:20:30.699Z,-1.66
2019-01-24T01:21:30.713Z,-1.72
2019-01-24T01:22:30.666Z,-1.71
2019-01-24T01:23:30.901Z,-1.68
2019-01-24T01:24:30.895Z,-1.71
2019-01-24T01:25:30.633Z,-1.69
2019-01-24T01:26:30.877Z,-1.71
2019-01-24T01:27:30.618Z,-1.71
2019-01-24T01:28:30.635Z,-1.74
2019-01-24T01:29:30.837Z,-1.64
2019-01-24T01:30:30.583Z,-1.64
2019-01-24T01:31:30.558Z,-1.64
2019-01-24T01:32:30.548Z,-1.68
2019-01-24T01:33:30.776Z,-1.61
2019-01-24T01:34:32.809Z,-1.68
2019-01-24T01:35:30.757Z,-1.66
2019-01-24T01:36:30.490Z,-1.68
2019-01-24T01:37:30.727Z,-1.65
2019-01-24T01:38:30.464Z,-1.71
2019-01-24T01:39:30.696Z,-1.72
2019-01-24T01:40:30.717Z,-1.79
2019-01-24T01:41:30.665Z,-1.72
2019-01-24T01:42:30.658Z,-1.64
2019-01-24T01:43:30.397Z,-1.68
2019-01-24T01:44:30.129Z,-1.62
2019-01-24T01:45:30.383Z,-1.65
2019-01-24T01:46:30.351Z,-1.62
2019-01-24T01:47:30.599Z,-1.62
2019-01-24T01:48:30.313Z,-1.59
2019-01-24T01:49:30.315Z,-1.58
2019-01-24T01:50:30.541Z,-1.66
2019-01-24T01:51:30.527Z,-1.65
2019-01-24T01:52:30.263Z,-1.65
2019-01-24T01:53:30.492Z,-1.58
2019-01-24T01:54:30.230Z,-1.64
2019-01-24T01:55:30.485Z,-1.61
2019-01-24T01:56:30.477Z,-1.58
2019-01-24T01:57:30.195Z,-1.66
2019-01-24T01:58:30.197Z,-1.62
2019-01-24T01:59:30.180Z,-1.59
2019-01-24T02:00:30.151Z,-1.59
2019-01-24T02:01:29.910Z,-1.66
2019-01-24T02:02:30.131Z,-1.54
2019-01-24T02:03:29.879Z,-1.61
2019-01-24T02:04:30.367Z,-1.66
2019-01-24T02:05:30.099Z,-1.64
2019-01-24T02:06:30.069Z,-1.59
2019-01-24T02:07:29.813Z,-1.68
2019-01-24T02:08:30.310Z,-1.68
2019-01-24T02:09:30.272Z,-1.61
2019-01-24T02:10:30.273Z,-1.66
2019-01-24T02:11:29.997Z,-1.62
2019-01-24T02:12:30.251Z,-1.66
2019-01-24T02:13:29.988Z,-1.65
2019-01-24T02:14:30.213Z,-1.66
2019-01-24T02:15:30.200Z,-1.68
2019-01-24T02:16:30.200Z,-1.56
2019-01-24T02:17:30.179Z,-1.69
2019-01-24T02:18:30.177Z,-1.72
2019-01-24T02:19:30.156Z,-1.65
2019-01-24T02:20:29.650Z,-1.65
2019-01-24T02:21:29.884Z,-1.65
2019-01-24T02:22:29.639Z,-1.69
2019-01-24T02:23:30.080Z,-1.64
2019-01-24T02:24:30.068Z,-1.58
2019-01-24T02:25:30.054Z,-1.65
2019-01-24T02:26:30.039Z,-1.69
2019-01-24T02:27:29.792Z,-1.66
2019-01-24T02:28:29.798Z,-1.71
2019-01-24T02:29:29.755Z,-1.71
2019-01-24T02:30:29.762Z,-1.69
2019-01-24T02:31:29.741Z,-1.69
2019-01-24T02:32:29.966Z,-1.69
2019-01-24T02:33:29.703Z,-1.64
2019-01-24T02:34:29.954Z,-1.69
2019-01-24T02:35:29.945Z,-1.71
2019-01-24T02:36:29.927Z,-1.69
2019-01-24T02:37:29.655Z,-1.68
2019-01-24T02:38:29.903Z,-1.66
2019-01-24T02:39:29.636Z,-1.69
2019-01-24T02:40:29.877Z,-1.72
2019-01-24T02:41:29.591Z,-1.66
2019-01-24T02:42:29.861Z,-1.69
2019-01-24T02:43:29.567Z,-1.76
2019-01-24T02:44:29.547Z,-1.72
2019-01-24T02:45:29.524Z,-1.69
2019-01-24T02:46:29.262Z,-1.69
2019-01-24T02:47:29.495Z,-1.74
2019-01-24T02:48:29.492Z,-1.66
2019-01-24T02:49:29.741Z,-1.72
2019-01-24T02:50:29.222Z,-1.71
2019-01-24T02:51:29.194Z,-1.74
2019-01-24T02:52:29.443Z,-1.77
2019-01-24T02:53:29.680Z,-1.84
2019-01-24T02:54:29.506Z,-1.82
2019-01-24T02:55:29.651Z,-1.8
2019-01-24T02:56:29.144Z,-1.8
2019-01-24T02:57:29.129Z,-1.82
2019-01-24T02:58:29.597Z,-1.83
2019-01-24T02:59:29.574Z,-1.77
2019-01-24T03:00:29.584Z,-1.79
2019-01-24T03:01:29.557Z,-1.83
2019-01-24T03:02:29.537Z,-1.8
2019-01-24T03:03:29.320Z,-1.8
2019-01-24T03:04:29.262Z,-1.86
2019-01-24T03:05:29.526Z,-1.77
2019-01-24T03:06:29.003Z,-1.79
2019-01-24T03:07:29.475Z,-1.8
2019-01-24T03:08:29.470Z,-1.82
2019-01-24T03:09:29.200Z,-1.79
2019-01-24T03:10:28.952Z,-1.89
2019-01-24T03:11:29.420Z,-1.82
2019-01-24T03:12:29.189Z,-1.82
2019-01-24T03:13:29.153Z,-1.87
2019-01-24T03:14:29.639Z,-1.83
2019-01-24T03:15:29.354Z,-1.8
2019-01-24T03:16:29.106Z,-1.86
2019-01-24T03:17:29.333Z,-1.72
2019-01-24T03:18:29.313Z,-1.86
2019-01-24T03:19:29.054Z,-1.82
2019-01-24T03:20:29.039Z,-1.77
2019-01-24T03:21:28.794Z,-1.8
2019-01-24T03:22:29.018Z,-1.8
2019-01-24T03:23:29.242Z,-1.84
2019-01-24T03:24:29.243Z,-1.89
2019-01-24T03:25:28.964Z,-1.8
2019-01-24T03:26:29.211Z,-1.84
2019-01-24T03:27:28.680Z,-1.84
2019-01-24T03:28:29.168Z,-1.83
2019-01-24T03:29:28.671Z,-1.8
2019-01-24T03:30:29.141Z,-1.79
2019-01-24T03:31:29.159Z,-1.83
2019-01-24T03:32:28.944Z,-1.84
2019-01-24T03:33:29.098Z,-1.79
2019-01-24T03:34:28.842Z,-1.86
2019-01-24T03:35:28.824Z,-1.72
2019-01-24T03:36:28.822Z,-1.77
2019-01-24T03:37:29.053Z,-1.84
2019-01-24T03:38:29.053Z,-1.8
2019-01-24T03:39:28.769Z,-1.82
2019-01-24T03:40:29.063Z,-1.8
2019-01-24T03:41:28.495Z,-1.76
2019-01-24T03:42:28.715Z,-1.9
2019-01-24T03:43:28.707Z,-1.87
2019-01-24T03:44:28.978Z,-1.86
2019-01-24T03:45:28.933Z,-1.9
2019-01-24T03:46:28.674Z,-2.04
2019-01-24T03:47:28.891Z,-1.9
2019-01-24T03:48:28.890Z,-2
2019-01-24T03:49:28.875Z,-2.01
2019-01-24T03:50:28.354Z,-2.02
2019-01-24T03:51:28.604Z,-2.05
2019-01-24T03:52:28.593Z,-1.94
2019-01-24T03:53:28.569Z,-1.92
2019-01-24T03:54:28.799Z,-2.01
2019-01-24T03:55:28.294Z,-2.04
2019-01-24T03:56:28.548Z,-1.97
2019-01-24T03:57:28.280Z,-2.01
2019-01-24T03:58:28.487Z,-2
2019-01-24T03:59:28.476Z,-1.98
2019-01-24T04:00:28.507Z,-1.98
2019-01-24T04:01:28.701Z,-2.01
2019-01-24T04:02:28.685Z,-2.08
2019-01-24T04:03:28.434Z,-2.04
2019-01-24T04:04:28.416Z,-2.07
2019-01-24T04:05:28.652Z,-1.97
2019-01-24T04:06:28.643Z,-2.04
2019-01-24T04:07:28.615Z,-2
2019-01-24T04:08:28.599Z,-2.01
2019-01-24T04:09:28.584Z,-2
2019-01-24T04:10:28.082Z,-2
2019-01-24T04:11:28.319Z,-2.01
2019-01-24T04:12:28.063Z,-1.98
2019-01-24T04:13:28.550Z,-1.92
2019-01-24T04:14:28.523Z,-2.02
2019-01-24T04:15:28.283Z,-1.94
2019-01-24T04:16:28.236Z,-2
2019-01-24T04:17:28.234Z,-1.89
2019-01-24T04:18:28.463Z,-1.9
2019-01-24T04:19:28.454Z,-1.89
2019-01-24T04:20:28.450Z,-2.01
2019-01-24T04:21:27.926Z,-1.98
2019-01-24T04:22:28.176Z,-2.01
2019-01-24T04:23:28.134Z,-1.95
2019-01-24T04:24:27.879Z,-1.9
2019-01-24T04:25:28.136Z,-1.92
2019-01-24T04:26:28.102Z,-2.02
2019-01-24T04:27:28.335Z,-1.97
2019-01-24T04:28:28.322Z,-2
2019-01-24T04:29:28.319Z,-2.01
2019-01-24T04:30:28.048Z,-1.94
2019-01-24T04:31:28.289Z,-2
2019-01-24T04:32:28.262Z,-2
2019-01-24T04:33:27.995Z,-2.02
2019-01-24T04:34:27.987Z,-2.01
2019-01-24T04:35:28.212Z,-2
2019-01-24T04:36:28.768Z,-1.92
2019-01-24T04:37:27.930Z,-2.02
2019-01-24T04:38:28.167Z,-2.02
2019-01-24T04:39:27.899Z,-2
2019-01-24T04:40:27.903Z,-2
2019-01-24T04:41:28.122Z,-2.04
2019-01-24T04:42:27.884Z,-2
2019-01-24T04:43:28.096Z,-2.02
2019-01-24T04:44:27.844Z,-1.98
2019-01-24T04:45:28.090Z,-2.08
2019-01-24T04:46:27.840Z,-1.98
2019-01-24T04:47:27.552Z,-2.07
2019-01-24T04:48:27.815Z,-2.08
2019-01-24T04:49:27.851Z,-2.08
2019-01-24T04:50:27.741Z,-2.05
2019-01-24T04:51:27.981Z,-2.05
2019-01-24T04:52:27.724Z,-2.12
2019-01-24T04:53:27.948Z,-2.15
2019-01-24T04:54:27.684Z,-2.1
2019-01-24T04:55:27.939Z,-2.08
2019-01-24T04:56:27.919Z,-2.12
2019-01-24T04:57:27.895Z,-1.98
2019-01-24T04:58:27.651Z,-2.08
2019-01-24T04:59:27.639Z,-2.01
2019-01-24T05:00:27.618Z,-2.02
2019-01-24T05:01:27.368Z,-1.94
2019-01-24T05:02:27.626Z,-2.02
2019-01-24T05:03:27.801Z,-2.02
2019-01-24T05:04:27.826Z,-2.01
2019-01-24T05:05:32.371Z,-2.04
2019-01-24T05:06:27.524Z,-2
2019-01-24T05:07:27.770Z,-2.07
2019-01-24T05:08:27.732Z,-2.1
2019-01-24T05:09:27.740Z,-2.13
2019-01-24T05:10:27.230Z,-2.26
2019-01-24T05:11:27.442Z,-2.28
2019-01-24T05:12:27.450Z,-2.34
2019-01-24T05:13:27.415Z,-2.37
2019-01-24T05:14:27.652Z,-2.44
2019-01-24T05:15:27.420Z,-2.35
2019-01-24T05:16:27.628Z,-2.32
2019-01-24T05:17:28.311Z,-2.41
2019-01-24T05:18:27.117Z,-2.37
2019-01-24T05:19:27.595Z,-2.23
2019-01-24T05:20:27.339Z,-2.19
2019-01-24T05:21:27.296Z,-2.18
2019-01-24T05:22:27.547Z,-2.12
2019-01-24T05:23:27.535Z,-2.1
2019-01-24T05:24:27.258Z,-2.1
2019-01-24T05:25:27.249Z,-2.18
2019-01-24T05:26:27.246Z,-2.34
2019-01-24T05:27:27.207Z,-2.3
2019-01-24T05:28:26.958Z,-2.21
2019-01-24T05:29:27.206Z,-2.21
2019-01-24T05:30:27.187Z,-2.18
2019-01-24T05:31:27.421Z,-2.16
2019-01-24T05:32:27.157Z,-2.08
2019-01-24T05:33:27.392Z,-2.23
2019-01-24T05:34:27.148Z,-2.19
2019-01-24T05:35:34.439Z,-2.08
2019-01-24T05:36:27.345Z,-2.12
2019-01-24T05:37:27.336Z,-2.19
2019-01-24T05:38:27.317Z,-2.08
2019-01-24T05:39:27.300Z,-2.16
2019-01-24T05:40:27.277Z,-2.12
2019-01-24T05:41:27.263Z,-2.01
2019-01-24T05:42:26.992Z,-2.15
2019-01-24T05:43:26.992Z,-2.18
2019-01-24T05:44:27.249Z,-2.16
2019-01-24T05:45:27.202Z,-2.07
2019-01-24T05:46:26.965Z,-2.12
2019-01-24T05:47:27.204Z,-2.07
2019-01-24T05:48:27.176Z,-2.1
2019-01-24T05:49:27.151Z,-2.16
2019-01-24T05:50:27.134Z,-2.15
2019-01-24T05:51:27.110Z,-2.1
2019-01-24T05:52:26.904Z,-2.12
2019-01-24T05:53:27.093Z,-2.12
2019-01-24T05:54:26.843Z,-2.19
2019-01-24T05:55:26.823Z,-2.18
2019-01-24T05:56:27.072Z,-2.19
2019-01-24T05:57:26.784Z,-2.13
2019-01-24T05:58:26.763Z,-2.16
2019-01-24T05:59:27.010Z,-2.23
2019-01-24T06:00:26.738Z,-2.23
2019-01-24T06:01:26.725Z,-2.23
2019-01-24T06:02:26.704Z,-2.25
2019-01-24T06:03:26.704Z,-2.28
2019-01-24T06:04:26.692Z,-2.3
2019-01-24T06:05:26.932Z,-2.23
2019-01-24T06:06:26.666Z,-2.3
2019-01-24T06:07:28.316Z,-2.23
2019-01-24T06:08:26.869Z,-2.28
2019-01-24T06:09:26.368Z,-2.22
2019-01-24T06:10:26.609Z,-2.19
2019-01-24T06:11:26.341Z,-2.3
2019-01-24T06:12:26.574Z,-2.15
2019-01-24T06:13:26.306Z,-2.15
2019-01-24T06:14:26.543Z,-2.16
2019-01-24T06:15:26.771Z,-2.32
2019-01-24T06:16:26.754Z,-2.22
2019-01-24T06:17:26.495Z,-2.25
2019-01-24T06:18:26.235Z,-2.26
2019-01-24T06:19:26.730Z,-2.28
2019-01-24T06:20:26.689Z,-2.22
2019-01-24T06:21:26.495Z,-2.21
2019-01-24T06:22:26.724Z,-2.15
2019-01-24T06:23:26.687Z,-2.28
2019-01-24T06:24:26.143Z,-2.25
2019-01-24T06:25:26.393Z,-2.23
2019-01-24T06:26:26.617Z,-2.26
2019-01-24T06:27:26.367Z,-2.35
2019-01-24T06:28:26.341Z,-2.4
2019-01-24T06:29:26.575Z,-2.41
2019-01-24T06:30:26.567Z,-2.37
2019-01-24T06:31:26.314Z,-2.4
2019-01-24T06:32:26.288Z,-2.34
2019-01-24T06:33:26.523Z,-2.32
2019-01-24T06:34:26.244Z,-2.38
2019-01-24T06:35:26.481Z,-2.3
2019-01-24T06:36:26.493Z,-2.3
2019-01-24T06:37:26.479Z,-2.25
2019-01-24T06:38:25.935Z,-2.23
2019-01-24T06:39:26.417Z,-2.26
2019-01-24T06:40:26.496Z,-2.23
2019-01-24T06:41:26.397Z,-2.32
2019-01-24T06:42:26.155Z,-2.28
2019-01-24T06:43:26.117Z,-2.23
2019-01-24T06:44:26.338Z,-2.19
2019-01-24T06:45:26.331Z,-2.3
2019-01-24T06:46:26.334Z,-2.3
2019-01-24T06:47:26.305Z,-2.26
2019-01-24T06:48:26.053Z,-2.21
2019-01-24T06:49:26.034Z,-2.26
2019-01-24T06:50:26.263Z,-2.18
2019-01-24T06:51:26.000Z,-2.21
2019-01-24T06:52:25.983Z,-2.25
2019-01-24T06:53:26.217Z,-2.13
2019-01-24T06:54:27.011Z,-2.12
2019-01-24T06:55:26.199Z,-2.13
2019-01-24T06:56:25.957Z,-2.23
2019-01-24T06:57:25.920Z,-2.16
2019-01-24T06:58:25.901Z,-2.12
2019-01-24T06:59:25.900Z,-2.15
2019-01-24T07:00:26.112Z,-2.12
2019-01-24T07:01:25.858Z,-2.02
2019-01-24T07:02:26.079Z,-2.01
2019-01-24T07:03:25.582Z,-2.08
2019-01-24T07:04:26.079Z,-2.01
2019-01-24T07:05:25.792Z,-2.04
2019-01-24T07:06:26.017Z,-2.1
2019-01-24T07:07:26.007Z,-2.18
2019-01-24T07:08:25.990Z,-2.12
2019-01-24T07:09:25.991Z,-2.15
2019-01-24T07:10:25.733Z,-2.07
2019-01-24T07:11:25.979Z,-2.23
2019-01-24T07:12:25.948Z,-2.18
2019-01-24T07:13:25.686Z,-2.13
2019-01-24T07:14:25.733Z,-2.15
2019-01-24T07:15:25.652Z,-2.15
2019-01-24T07:16:25.888Z,-2.07
2019-01-24T07:17:25.621Z,-2.05
2019-01-24T07:18:25.607Z,-2.07
2019-01-24T07:19:25.863Z,-2.15
2019-01-24T07:20:25.599Z,-2.04
2019-01-24T07:21:25.814Z,-2.13
2019-01-24T07:22:25.800Z,-2.16
2019-01-24T07:23:25.796Z,-2.1
2019-01-24T07:24:26.315Z,-2.08
2019-01-24T07:25:25.259Z,-2.08
2019-01-24T07:26:25.492Z,-2.1
2019-01-24T07:27:25.725Z,-2.07
2019-01-24T07:28:25.715Z,-2.07
2019-01-24T07:29:25.452Z,-2.15
2019-01-24T07:30:25.446Z,-2.1
2019-01-24T07:31:25.443Z,-2.16
2019-01-24T07:32:25.165Z,-2.12
2019-01-24T07:33:25.645Z,-2.07
2019-01-24T07:34:25.640Z,-2.1
2019-01-24T07:35:25.398Z,-2.05
2019-01-24T07:36:25.610Z,-2
2019-01-24T07:37:25.351Z,-1.97
2019-01-24T07:38:25.575Z,-1.97
2019-01-24T07:39:25.560Z,-1.87
2019-01-24T07:40:25.560Z,-1.92
2019-01-24T07:41:25.284Z,-1.87
2019-01-24T07:42:25.281Z,-1.8
2019-01-24T07:43:25.253Z,-1.86
2019-01-24T07:44:25.512Z,-1.82
2019-01-24T07:45:25.467Z,-1.86
2019-01-24T07:46:25.206Z,-1.83
2019-01-24T07:47:25.207Z,-1.79
2019-01-24T07:48:25.185Z,-1.71
2019-01-24T07:49:24.932Z,-1.59
2019-01-24T07:50:25.178Z,-1.66
2019-01-24T07:51:25.386Z,-1.58
2019-01-24T07:52:25.371Z,-1.58
2019-01-24T07:53:25.118Z,-1.62
2019-01-24T07:54:25.348Z,-1.71
2019-01-24T07:55:25.358Z,-1.71
2019-01-24T07:56:25.100Z,-1.8
2019-01-24T07:57:24.806Z,-1.74
2019-01-24T07:58:25.042Z,-1.86
2019-01-24T07:59:25.029Z,-1.77
2019-01-24T08:00:25.021Z,-1.8
2019-01-24T08:01:25.013Z,-1.83
2019-01-24T08:02:24.992Z,-1.8
2019-01-24T08:03:24.976Z,-1.87
2019-01-24T08:04:24.959Z,-1.77
2019-01-24T08:05:24.948Z,-1.86
2019-01-24T08:06:25.207Z,-1.8
2019-01-24T08:07:24.925Z,-1.84
2019-01-24T08:08:25.160Z,-1.82
2019-01-24T08:09:25.158Z,-1.83
2019-01-24T08:10:24.881Z,-1.8
2019-01-24T08:11:25.132Z,-1.68
2019-01-24T08:12:24.849Z,-1.65
2019-01-24T08:13:24.879Z,-1.68
2019-01-24T08:14:25.064Z,-1.62
2019-01-24T08:15:25.068Z,-1.61
2019-01-24T08:16:24.563Z,-1.64
2019-01-24T08:17:24.534Z,-1.65
2019-01-24T08:18:24.773Z,-1.58
2019-01-24T08:19:25.013Z,-1.56
2019-01-24T08:20:24.737Z,-1.61
2019-01-24T08:21:24.494Z,-1.62
2019-01-24T08:22:24.734Z,-1.59
2019-01-24T08:23:24.710Z,-1.58
2019-01-24T08:24:24.436Z,-1.54
2019-01-24T08:25:24.677Z,-1.43
2019-01-24T08:26:24.422Z,-1.48
2019-01-24T08:27:24.932Z,-1.48
2019-01-24T08:28:24.638Z,-1.44
2019-01-24T08:29:24.665Z,-1.41
2019-01-24T08:30:24.850Z,-1.38
2019-01-24T08:31:24.589Z,-1.37
2019-01-24T08:32:24.841Z,-1.4
2019-01-24T08:33:24.580Z,-1.3
2019-01-24T08:34:24.556Z,-1.29
2019-01-24T08:35:24.584Z,-1.27
2019-01-24T08:36:24.569Z,-1.33
2019-01-24T08:37:24.511Z,-1.33
2019-01-24T08:38:24.754Z,-1.29
2019-01-24T08:39:24.726Z,-1.3
2019-01-24T08:40:24.527Z,-1.23
2019-01-24T08:41:24.503Z,-1.3
2019-01-24T08:42:24.699Z,-1.19
2019-01-24T08:43:24.440Z,-1.25
2019-01-24T08:44:24.420Z,-1.3
2019-01-24T08:45:24.444Z,-1.22
2019-01-24T08:46:24.417Z,-1.19
2019-01-24T08:47:24.615Z,-1.19
2019-01-24T08:48:24.120Z,-1.12
2019-01-24T08:49:24.100Z,-1.15
2019-01-24T08:50:24.584Z,-1.09
2019-01-24T08:51:24.587Z,-1.12
2019-01-24T08:52:25.137Z,-1.11
2019-01-24T08:53:24.307Z,-1.15
2019-01-24T08:54:24.276Z,-1.04
2019-01-24T08:55:24.519Z,-1.07
2019-01-24T08:56:24.530Z,-1.05
2019-01-24T08:57:24.280Z,-0.99
2019-01-24T08:58:24.229Z,-1.04
2019-01-24T08:59:29.398Z,-1.07
2019-01-24T09:00:24.235Z,-1.02
2019-01-24T09:01:24.225Z,-1.02
2019-01-24T09:02:24.437Z,-0.94
2019-01-24T09:03:24.429Z,-0.94
2019-01-24T09:04:23.909Z,-1.01
2019-01-24T09:05:24.167Z,-0.94
2019-01-24T09:06:27.591Z,-0.96
2019-01-24T09:07:24.131Z,-0.99
2019-01-24T09:08:23.883Z,-0.97
2019-01-24T09:09:24.346Z,-0.89
2019-01-24T09:10:24.116Z,-0.77
2019-01-24T09:11:24.353Z,-0.77
2019-01-24T09:12:30.046Z,-0.67
2019-01-24T09:13:24.053Z,-0.62
2019-01-24T09:14:24.268Z,-0.61
2019-01-24T09:15:24.036Z,-0.65
2019-01-24T09:16:24.003Z,-0.53
2019-01-24T09:17:24.242Z,-0.47
2019-01-24T09:18:23.970Z,-0.43
2019-01-24T09:19:24.213Z,-0.35
2019-01-24T09:20:24.196Z,-0.36
2019-01-24T09:21:24.198Z,-0.32
2019-01-24T09:22:24.274Z,-0.44
2019-01-24T09:23:23.922Z,-0.36
2019-01-24T09:24:24.167Z,-0.34
2019-01-24T09:25:23.895Z,-0.2
2019-01-24T09:26:24.138Z,-0.21
2019-01-24T09:27:23.868Z,-0.21
2019-01-24T09:28:24.118Z,-0.28
2019-01-24T09:29:24.094Z,-0.34
2019-01-24T09:30:24.120Z,-0.34
2019-01-24T09:31:23.816Z,-0.43
2019-01-24T09:32:23.827Z,-0.47
2019-01-24T09:33:24.059Z,-0.32
2019-01-24T09:34:23.798Z,-0.35
2019-01-24T09:35:24.016Z,-0.38
2019-01-24T09:36:29.159Z,-0.38
2019-01-24T09:37:23.501Z,-0.23
2019-01-24T09:38:23.734Z,-0.28
2019-01-24T09:39:23.734Z,-0.18
2019-01-24T09:40:23.971Z,-0.28
2019-01-24T09:41:23.715Z,-0.2
2019-01-24T09:42:23.950Z,-0.23
2019-01-24T09:43:23.670Z,-0.26
2019-01-24T09:44:23.692Z,-0.31
2019-01-24T09:45:23.652Z,-0.15
2019-01-24T09:46:23.639Z,-0.13
2019-01-24T09:47:23.884Z,0.01
2019-01-24T09:48:23.881Z,0.12
2019-01-24T09:49:23.888Z,0.21
2019-01-24T09:50:23.847Z,-0.02
2019-01-24T09:51:23.836Z,-0.03
2019-01-24T09:52:23.569Z,0.12
2019-01-24T09:53:23.304Z,0.22
2019-01-24T09:54:23.310Z,0.15
2019-01-24T09:55:23.553Z,0.19
2019-01-24T09:56:23.534Z,0.12
2019-01-24T09:57:23.530Z,0.12
2019-01-24T09:58:23.756Z,0.19
2019-01-24T09:59:23.500Z,0.32
2019-01-24T10:00:23.727Z,0.4
2019-01-24T10:01:23.732Z,0.31
2019-01-24T10:02:23.468Z,0.46
2019-01-24T10:03:23.453Z,0.43
2019-01-24T10:04:23.703Z,0.37
2019-01-24T10:05:23.429Z,0.32
2019-01-24T10:06:23.412Z,0.36
2019-01-24T10:07:23.407Z,0.4
2019-01-24T10:08:23.150Z,0.37
2019-01-24T10:09:23.582Z,0.22
2019-01-24T10:10:23.689Z,0.11
2019-01-24T10:11:28.308Z,0.16
2019-01-24T10:12:23.600Z,-0.02
2019-01-24T10:13:23.579Z,0.16
2019-01-24T10:14:23.581Z,0.08
2019-01-24T10:15:23.551Z,0.11
2019-01-24T10:16:23.318Z,0.11
2019-01-24T10:17:23.522Z,0.03
2019-01-24T10:18:26.060Z,-0.06
2019-01-24T10:19:23.535Z,-0.03
2019-01-24T10:20:23.035Z,-0.1
2019-01-24T10:21:23.493Z,-0.03
2019-01-24T10:22:23.466Z,0.15
2019-01-24T10:23:22.968Z,0.15
2019-01-24T10:24:22.955Z,0
2019-01-24T10:25:23.453Z,0.04
2019-01-24T10:26:23.237Z,-0.03
2019-01-24T10:27:23.429Z,-0.02
2019-01-24T10:28:23.426Z,-0.13
2019-01-24T10:29:22.907Z,-0.2
2019-01-24T10:30:23.153Z,-0.21
2019-01-24T10:31:23.387Z,-0.31
2019-01-24T10:32:23.373Z,-0.23
2019-01-24T10:33:23.406Z,-0.28
2019-01-24T10:34:23.090Z,-0.21
2019-01-24T10:35:23.078Z,-0.26
2019-01-24T10:36:23.309Z,-0.13
2019-01-24T10:37:23.077Z,-0.1
2019-01-24T10:38:22.796Z,-0.1
2019-01-24T10:39:22.803Z,-0.11
2019-01-24T10:40:23.120Z,-0.06
2019-01-24T10:41:23.258Z,-0.03
2019-01-24T10:42:23.016Z,0.1
2019-01-24T10:43:23.239Z,0.1
2019-01-24T10:44:24.086Z,0.11
2019-01-24T10:45:22.959Z,0
2019-01-24T10:46:22.764Z,-0.1
2019-01-24T10:47:23.284Z,-0.02
2019-01-24T10:48:22.930Z,0.01
2019-01-24T10:49:22.666Z,0.08
2019-01-24T10:50:23.180Z,0.08
2019-01-24T10:51:23.141Z,-0.07
2019-01-24T10:52:23.043Z,-0.03
2019-01-24T10:53:23.153Z,0.01
2019-01-24T10:54:23.109Z,-0.06
2019-01-24T10:55:22.847Z,-0.08
2019-01-24T10:56:23.093Z,-0.08
2019-01-24T10:57:23.078Z,-0.06
2019-01-24T10:58:22.580Z,-0.07
2019-01-24T10:59:23.055Z,0.05
2019-01-24T11:00:22.802Z,-0.03
2019-01-24T11:01:23.047Z,0.1
2019-01-24T11:02:23.021Z,0.12
2019-01-24T11:03:23.019Z,0.26
2019-01-24T11:04:22.759Z,0.34
2019-01-24T11:05:22.777Z,0.31
2019-01-24T11:06:22.790Z,0.32
2019-01-24T11:07:22.954Z,0.32
2019-01-24T11:08:22.969Z,0.37
2019-01-24T11:09:22.985Z,0.43
2019-01-24T11:10:22.933Z,0.4
2019-01-24T11:11:22.914Z,0.34
2019-01-24T11:12:22.908Z,0.34
2019-01-24T11:13:22.385Z,0.32
2019-01-24T11:14:22.389Z,0.56
2019-01-24T11:15:22.621Z,0.56
2019-01-24T11:16:22.865Z,0.69
2019-01-24T11:17:22.840Z,0.63
2019-01-24T11:18:22.829Z,0.46
2019-01-24T11:19:23.367Z,0.36
2019-01-24T11:20:22.331Z,0.41
2019-01-24T11:21:22.550Z,0.4
2019-01-24T11:22:22.549Z,0.46
2019-01-24T11:23:22.792Z,0.52
2019-01-24T11:24:22.774Z,0.62
2019-01-24T11:25:22.767Z,0.65
2019-01-24T11:26:22.506Z,0.59
2019-01-24T11:27:22.500Z,0.59
2019-01-24T11:28:22.231Z,0.5
2019-01-24T11:29:22.467Z,0.41
2019-01-24T11:30:22.440Z,0.49
2019-01-24T11:31:22.706Z,0.63
2019-01-24T11:32:22.693Z,0.44
2019-01-24T11:33:22.431Z,0.58
2019-01-24T11:34:22.417Z,0.59
2019-01-24T11:35:22.633Z,0.63
2019-01-24T11:36:22.378Z,0.59
2019-01-24T11:37:22.620Z,0.69
2019-01-24T11:38:22.603Z,0.76
2019-01-24T11:39:23.168Z,0.7
2019-01-24T11:40:22.107Z,0.74
2019-01-24T11:41:22.327Z,0.74
2019-01-24T11:42:22.549Z,0.74
2019-01-24T11:43:22.307Z,0.6
2019-01-24T11:44:22.287Z,0.56
2019-01-24T11:45:22.518Z,0.47
2019-01-24T11:46:22.518Z,0.43
2019-01-24T11:47:22.012Z,0.34
2019-01-24T11:48:22.249Z,0.37
2019-01-24T11:49:22.470Z,0.39
2019-01-24T11:50:22.226Z,0.43
2019-01-24T11:51:22.463Z,0.31
2019-01-24T11:52:22.489Z,0.19
2019-01-24T11:53:22.197Z,0.21
2019-01-24T11:54:22.478Z,0.22
2019-01-24T11:55:22.168Z,0.23
2019-01-24T11:56:22.158Z,0.1
2019-01-24T11:57:22.151Z,0.15
2019-01-24T11:58:22.381Z,-0.06
2019-01-24T11:59:22.126Z,-0.15
2019-01-24T12:00:21.866Z,-0.26
2019-01-24T12:01:24.804Z,-0.28
2019-01-24T12:02:22.092Z,-0.23
2019-01-24T12:03:22.314Z,-0.26
2019-01-24T12:04:22.295Z,-0.23
2019-01-24T12:05:22.297Z,-0.26
2019-01-24T12:06:23.317Z,-0.18
2019-01-24T12:07:22.020Z,-0.25
2019-01-24T12:08:22.270Z,-0.26
2019-01-24T12:09:22.004Z,-0.23
2019-01-24T12:10:21.984Z,-0.26
2019-01-24T12:11:21.985Z,-0.18
2019-01-24T12:12:22.217Z,-0.25
2019-01-24T12:13:21.940Z,-0.35
2019-01-24T12:14:22.191Z,-0.32
2019-01-24T12:15:22.171Z,-0.36
2019-01-24T12:16:22.170Z,-0.29
2019-01-24T12:17:22.150Z,-0.25
2019-01-24T12:18:21.891Z,-0.29
2019-01-24T12:19:21.629Z,-0.23
2019-01-24T12:20:21.874Z,-0.36
2019-01-24T12:21:21.851Z,-0.32
2019-01-24T12:22:22.082Z,-0.46
2019-01-24T12:23:21.826Z,-0.53
2019-01-24T12:24:21.810Z,-0.49
2019-01-24T12:25:22.042Z,-0.49
2019-01-24T12:26:22.042Z,-0.46
2019-01-24T12:27:22.028Z,-0.47
2019-01-24T12:28:21.768Z,-0.36
2019-01-24T12:29:21.751Z,-0.36
2019-01-24T12:30:21.986Z,-0.31
2019-01-24T12:31:21.473Z,-0.29
2019-01-24T12:32:21.957Z,-0.31
2019-01-24T12:33:21.714Z,-0.18
2019-01-24T12:34:22.151Z,-0.25
2019-01-24T12:35:21.921Z,-0.25
2019-01-24T12:36:21.949Z,-0.32
2019-01-24T12:37:21.655Z,-0.32
2019-01-24T12:38:21.881Z,-0.29
2019-01-24T12:39:21.660Z,-0.43
2019-01-24T12:40:22.677Z,-0.47
2019-01-24T12:41:21.839Z,-0.56
2019-01-24T12:42:21.581Z,-0.52
2019-01-24T12:43:21.604Z,-0.68
2019-01-24T12:44:21.559Z,-0.61
2019-01-24T12:45:21.895Z,-0.71
2019-01-24T12:46:21.787Z,-0.74
2019-01-24T12:47:21.781Z,-0.78
2019-01-24T12:48:21.751Z,-0.77
2019-01-24T12:49:21.738Z,-0.83
2019-01-24T12:50:21.485Z,-0.8
2019-01-24T12:51:21.465Z,-0.71
2019-01-24T12:52:21.699Z,-0.59
2019-01-24T12:53:21.445Z,-0.57
2019-01-24T12:54:21.694Z,-0.65
2019-01-24T12:55:21.457Z,-0.67
2019-01-24T12:56:21.666Z,-0.72
2019-01-24T12:57:21.643Z,-0.71
2019-01-24T12:58:21.410Z,-0.74
2019-01-24T12:59:21.117Z,-0.74